Time;durP1;ratioP1;P1;durP2;ratioP2;P2;SDS_P1;SDS_P2;PMS_P1;PMS_P2;Temp;Humidity;BMP_temperature;BMP_pressure;BME280_temperature;BME280_humidity;BME280_pressure;Samples;Min_cycle;Max_cycle;Signal;HPM_P1;HPM_P2
2020/12/08 00:00:23;;;;;;;21.92;13.57;;;3.70;99.90;;;;;;5024737;28;20606;-68
2020/12/08 00:02:50;;;;;;;20.77;14.02;;;3.70;99.90;;;;;;5023779;28;20620;-72
2020/12/08 00:05:21;;;;;;;20.90;13.05;;;3.70;99.90;;;;;;5023000;28;20057;-66
2020/12/08 00:07:48;;;;;;;19.48;12.60;;;3.80;99.90;;;;;;5020836;28;20056;-71
2020/12/08 00:10:19;;;;;;;19.55;12.15;;;3.80;99.90;;;;;;5028685;28;20193;-67
2020/12/08 00:12:47;;;;;;;23.50;14.80;;;3.80;99.90;;;;;;5025787;28;20045;-68
2020/12/08 00:15:15;;;;;;;24.73;15.35;;;3.80;99.90;;;;;;5025434;28;20048;-66
2020/12/08 00:17:43;;;;;;;23.30;14.00;;;3.70;99.90;;;;;;5026385;28;20055;-67
2020/12/08 00:20:10;;;;;;;21.80;13.82;;;3.70;99.90;;;;;;5027659;28;20068;-71
2020/12/08 00:22:38;;;;;;;21.70;14.13;;;3.70;99.90;;;;;;5031875;28;20135;-66
2020/12/08 00:25:08;;;;;;;26.25;16.23;;;3.70;99.90;;;;;;5024502;28;20044;-69
2020/12/08 00:27:36;;;;;;;22.08;14.00;;;3.70;99.90;;;;;;5025775;28;20052;-67
2020/12/08 00:30:10;;;;;;;27.38;14.00;;;3.70;99.90;;;;;;5028696;28;20065;-70
2020/12/08 00:32:38;;;;;;;21.38;14.27;;;3.70;99.90;;;;;;5027719;28;20049;-68
2020/12/08 00:35:05;;;;;;;19.23;14.10;;;3.80;99.90;;;;;;5031785;28;20816;-70
2020/12/08 00:37:32;;;;;;;20.98;15.02;;;3.70;99.90;;;;;;5023494;28;20045;-67
2020/12/08 00:39:58;;;;;;;28.95;15.80;;;3.70;99.90;;;;;;5026814;28;20136;-68
2020/12/08 00:42:25;;;;;;;21.15;14.70;;;3.70;99.90;;;;;;5026159;28;20044;-69
2020/12/08 00:44:52;;;;;;;27.02;14.80;;;3.70;99.90;;;;;;5026886;28;20147;-68
2020/12/08 00:47:18;;;;;;;22.30;13.98;;;3.70;99.90;;;;;;5060843;28;20425;-66
2020/12/08 00:49:45;;;;;;;20.95;14.52;;;3.70;99.90;;;;;;5021667;28;20519;-66
2020/12/08 00:52:13;;;;;;;19.92;13.98;;;3.70;99.90;;;;;;5027005;28;20141;-67
2020/12/08 00:54:40;;;;;;;20.58;14.48;;;3.70;99.90;;;;;;5026067;28;20049;-69
2020/12/08 00:57:10;;;;;;;22.77;14.90;;;3.70;99.90;;;;;;5024692;28;20041;-70
2020/12/08 00:59:40;;;;;;;28.27;16.35;;;3.70;99.90;;;;;;5025620;28;20045;-67
2020/12/08 01:02:06;;;;;;;23.88;14.27;;;3.70;99.90;;;;;;5024606;28;20045;-72
2020/12/08 01:04:34;;;;;;;22.17;15.02;;;3.70;99.90;;;;;;5045387;28;20057;-67
2020/12/08 01:07:01;;;;;;;18.38;14.35;;;3.70;99.90;;;;;;5019414;28;20049;-67
2020/12/08 01:09:27;;;;;;;23.77;15.10;;;3.70;99.90;;;;;;5029248;28;20156;-68
2020/12/08 01:11:54;;;;;;;19.73;14.85;;;3.70;99.90;;;;;;5057379;28;20049;-69
2020/12/08 01:14:25;;;;;;;26.33;16.35;;;3.70;99.90;;;;;;5022777;28;20685;-67
2020/12/08 01:16:51;;;;;;;26.25;16.10;;;3.70;99.90;;;;;;5027031;28;20647;-69
2020/12/08 01:19:18;;;;;;;23.92;15.02;;;3.60;99.90;;;;;;5022500;28;20045;-72
2020/12/08 01:21:49;;;;;;;23.27;14.73;;;3.70;99.90;;;;;;5023781;28;20099;-68
2020/12/08 01:24:16;;;;;;;28.92;14.38;;;3.70;99.90;;;;;;5054786;28;20397;-67
2020/12/08 01:26:43;;;;;;;21.40;14.60;;;3.70;99.90;;;;;;5024270;28;20318;-67
2020/12/08 01:29:09;;;;;;;19.58;14.40;;;3.60;99.90;;;;;;5028007;28;20056;-70
2020/12/08 01:31:40;;;;;;;25.25;14.10;;;3.70;99.90;;;;;;5024650;28;20045;-69
2020/12/08 01:34:13;;;;;;;19.20;14.02;;;3.60;99.90;;;;;;5055327;28;20045;-68
2020/12/08 01:36:39;;;;;;;28.90;14.70;;;3.60;99.90;;;;;;5023595;28;20481;-68
2020/12/08 01:39:07;;;;;;;19.30;13.43;;;3.60;99.90;;;;;;5029151;28;20044;-72
2020/12/08 01:41:36;;;;;;;19.20;13.55;;;3.60;99.90;;;;;;5025101;28;20063;-70
2020/12/08 01:44:02;;;;;;;23.83;15.25;;;3.60;99.90;;;;;;5024351;28;20136;-71
2020/12/08 01:46:33;;;;;;;22.48;14.27;;;3.60;99.90;;;;;;5028476;28;20053;-69
2020/12/08 01:49:00;;;;;;;21.42;13.45;;;3.60;99.90;;;;;;5022847;28;20053;-67
2020/12/08 01:51:28;;;;;;;22.02;16.25;;;3.60;99.90;;;;;;5028381;28;20148;-69
2020/12/08 01:53:54;;;;;;;20.25;15.00;;;3.60;99.90;;;;;;5024272;28;20049;-68
2020/12/08 01:56:31;;;;;;;25.15;15.05;;;3.60;99.90;;;;;;5024906;28;20049;-71
2020/12/08 01:59:05;;;;;;;20.10;14.13;;;3.60;99.90;;;;;;5028106;28;20045;-71
2020/12/08 02:01:33;;;;;;;20.67;14.00;;;3.60;99.90;;;;;;5023472;28;20515;-72
2020/12/08 02:04:01;;;;;;;28.67;14.90;;;3.60;99.90;;;;;;5022557;28;20065;-70
2020/12/08 02:06:27;;;;;;;20.98;14.20;;;3.60;99.90;;;;;;5028641;28;20064;-68
2020/12/08 02:08:56;;;;;;;19.08;12.15;;;3.60;99.90;;;;;;5058047;28;20052;-67
2020/12/08 02:11:30;;;;;;;23.17;14.77;;;3.60;99.90;;;;;;5025768;28;20159;-67
2020/12/08 02:13:57;;;;;;;21.30;13.73;;;3.60;99.90;;;;;;5028091;28;20048;-67
2020/12/08 02:16:24;;;;;;;25.70;17.20;;;3.60;99.90;;;;;;5025300;28;20068;-70
2020/12/08 02:18:54;;;;;;;23.48;14.20;;;3.50;99.90;;;;;;5022290;28;20096;-71
2020/12/08 02:21:33;;;;;;;19.17;13.32;;;3.50;99.90;;;;;;5022587;28;20037;-66
2020/12/08 02:24:08;;;;;;;20.88;13.50;;;3.60;99.90;;;;;;5022277;28;20045;-68
2020/12/08 02:26:35;;;;;;;24.48;13.50;;;3.60;99.90;;;;;;5026632;28;20047;-70
2020/12/08 02:29:05;;;;;;;19.13;13.52;;;3.60;99.90;;;;;;5028525;28;20044;-66
2020/12/08 02:31:35;;;;;;;25.57;15.27;;;3.50;99.90;;;;;;5020185;28;20052;-68
2020/12/08 02:34:02;;;;;;;18.60;12.60;;;3.50;99.90;;;;;;5025074;28;20179;-67
2020/12/08 02:36:29;;;;;;;18.02;12.52;;;3.50;99.90;;;;;;5023898;28;20175;-68
2020/12/08 02:38:56;;;;;;;22.60;12.70;;;3.50;99.90;;;;;;5024109;28;20045;-69
2020/12/08 02:41:24;;;;;;;19.08;12.70;;;3.50;99.90;;;;;;5022693;28;20053;-70
2020/12/08 02:43:54;;;;;;;25.17;13.15;;;3.50;99.90;;;;;;5019891;28;20473;-66
2020/12/08 02:46:22;;;;;;;16.00;11.88;;;3.50;99.90;;;;;;5026035;28;20056;-68
2020/12/08 02:48:50;;;;;;;24.30;13.38;;;3.40;99.90;;;;;;5026802;28;20076;-69
2020/12/08 02:51:19;;;;;;;19.83;12.35;;;3.50;99.90;;;;;;5021629;28;21150;-68
2020/12/08 02:53:50;;;;;;;20.45;12.95;;;3.40;99.90;;;;;;5024067;28;20063;-67
2020/12/08 02:56:23;;;;;;;17.98;13.00;;;3.50;99.90;;;;;;5023396;28;20113;-68
2020/12/08 02:58:50;;;;;;;24.52;12.82;;;3.50;99.90;;;;;;5026064;28;20095;-67
2020/12/08 03:01:20;;;;;;;17.67;12.45;;;3.40;99.90;;;;;;5019401;28;20053;-66
2020/12/08 03:03:49;;;;;;;16.42;12.23;;;3.50;99.90;;;;;;5023817;28;20072;-70
2020/12/08 03:06:18;;;;;;;19.83;13.20;;;3.40;99.90;;;;;;5019952;28;20382;-67
2020/12/08 03:08:45;;;;;;;18.35;11.73;;;3.50;99.90;;;;;;5023417;28;20594;-71
2020/12/08 03:11:14;;;;;;;21.05;14.30;;;3.50;99.90;;;;;;5020896;28;20053;-72
2020/12/08 03:13:42;;;;;;;21.42;12.95;;;3.40;99.90;;;;;;5020985;28;20045;-68
2020/12/08 03:16:09;;;;;;;23.35;13.35;;;3.40;99.90;;;;;;5028877;28;20045;-68
2020/12/08 03:18:39;;;;;;;22.92;14.30;;;3.40;99.90;;;;;;5022942;28;20057;-70
2020/12/08 03:21:05;;;;;;;17.67;12.77;;;3.40;99.90;;;;;;5024871;28;20126;-72
2020/12/08 03:23:32;;;;;;;18.85;12.27;;;3.40;99.90;;;;;;5025716;28;20061;-73
2020/12/08 03:25:58;;;;;;;25.92;14.60;;;3.40;99.90;;;;;;5020026;28;20041;-68
2020/12/08 03:28:26;;;;;;;16.38;12.45;;;3.40;99.90;;;;;;5024597;28;20049;-70
2020/12/08 03:30:53;;;;;;;18.70;13.07;;;3.40;99.90;;;;;;5023706;28;20049;-71
2020/12/08 03:33:19;;;;;;;20.95;14.48;;;3.30;99.90;;;;;;5023478;28;20037;-72
2020/12/08 03:35:46;;;;;;;18.30;12.80;;;3.30;99.90;;;;;;5036647;28;20124;-69
2020/12/08 03:38:12;;;;;;;18.23;11.38;;;3.30;99.90;;;;;;5024435;28;20045;-72
2020/12/08 03:40:43;;;;;;;18.73;12.02;;;3.30;99.90;;;;;;5022410;28;20098;-69
2020/12/08 03:43:18;;;;;;;21.80;11.30;;;3.30;99.90;;;;;;5021450;28;20500;-69
2020/12/08 03:45:45;;;;;;;22.70;11.07;;;3.30;99.90;;;;;;5022755;28;20060;-68
2020/12/08 03:48:12;;;;;;;20.58;10.95;;;3.30;99.90;;;;;;5026670;28;20073;-72
2020/12/08 03:50:45;;;;;;;17.92;10.90;;;3.30;99.90;;;;;;5017504;28;20048;-69
2020/12/08 03:53:19;;;;;;;19.17;11.20;;;3.30;99.90;;;;;;5011106;28;20115;-69
2020/12/08 03:55:53;;;;;;;19.38;12.70;;;3.20;99.90;;;;;;5005132;28;20166;-71
2020/12/08 03:58:20;;;;;;;20.55;11.88;;;3.20;99.90;;;;;;5006627;28;20061;-72
2020/12/08 04:00:46;;;;;;;15.27;11.00;;;3.20;99.90;;;;;;5007332;28;20703;-67
2020/12/08 04:03:13;;;;;;;17.75;11.73;;;3.20;99.90;;;;;;5007486;28;20092;-70
2020/12/08 04:05:43;;;;;;;19.30;10.18;;;3.10;99.90;;;;;;5007856;28;20072;-67
2020/12/08 04:08:11;;;;;;;14.23;10.57;;;3.20;99.90;;;;;;5007071;28;20048;-69
2020/12/08 04:10:45;;;;;;;15.38;11.55;;;3.10;99.90;;;;;;5009439;28;20144;-69
2020/12/08 04:13:11;;;;;;;18.75;10.27;;;3.10;99.90;;;;;;5006817;28;20162;-69
2020/12/08 04:15:41;;;;;;;17.23;9.98;;;3.10;99.90;;;;;;5009166;28;20060;-67
2020/12/08 04:18:09;;;;;;;14.82;10.23;;;3.10;99.90;;;;;;5034798;28;20046;-68
2020/12/08 04:20:35;;;;;;;16.25;9.90;;;3.10;99.90;;;;;;5007224;28;20844;-68
2020/12/08 04:23:01;;;;;;;16.95;10.30;;;3.10;99.90;;;;;;5008866;28;20182;-68
2020/12/08 04:25:32;;;;;;;14.40;10.13;;;3.10;99.90;;;;;;5005261;28;20616;-67
2020/12/08 04:28:00;;;;;;;15.25;9.65;;;3.10;99.90;;;;;;5009809;28;20818;-67
2020/12/08 04:30:27;;;;;;;15.13;10.38;;;3.10;99.90;;;;;;5004600;28;20041;-70
2020/12/08 04:32:54;;;;;;;15.93;8.50;;;3.00;99.90;;;;;;5008741;28;20045;-69
2020/12/08 04:35:21;;;;;;;14.73;9.57;;;3.00;99.90;;;;;;5005922;28;20102;-68
2020/12/08 04:37:47;;;;;;;18.42;11.15;;;3.00;99.90;;;;;;5005854;28;20037;-68
2020/12/08 04:40:14;;;;;;;17.60;10.55;;;3.00;99.90;;;;;;5012829;28;20100;-68
2020/12/08 04:42:47;;;;;;;20.30;10.88;;;3.00;99.90;;;;;;5004913;28;20443;-66
2020/12/08 04:45:14;;;;;;;15.27;9.32;;;3.00;99.90;;;;;;5008356;28;20582;-66
2020/12/08 04:47:46;;;;;;;21.77;12.85;;;2.90;99.90;;;;;;5005775;28;20042;-71
2020/12/08 04:50:14;;;;;;;15.13;9.68;;;2.90;99.90;;;;;;5004547;28;20080;-72
2020/12/08 04:52:41;;;;;;;14.43;10.63;;;2.90;99.90;;;;;;5004935;28;20057;-70
2020/12/08 04:55:08;;;;;;;17.88;11.25;;;2.90;99.90;;;;;;5009573;28;20404;-69
2020/12/08 04:57:35;;;;;;;16.08;9.43;;;2.90;99.90;;;;;;5004145;28;20050;-68
2020/12/08 05:00:13;;;;;;;14.95;10.15;;;2.90;99.90;;;;;;5008974;28;20735;-69
2020/12/08 05:02:46;;;;;;;12.55;9.57;;;2.90;99.90;;;;;;5008777;28;20084;-68
2020/12/08 05:05:14;;;;;;;15.55;9.57;;;2.90;99.90;;;;;;5012762;28;20054;-71
2020/12/08 05:07:41;;;;;;;16.52;11.25;;;2.80;99.90;;;;;;5003127;28;20545;-69
2020/12/08 05:10:08;;;;;;;16.08;10.30;;;2.80;99.90;;;;;;5007955;28;20560;-68
2020/12/08 05:12:34;;;;;;;18.55;10.15;;;2.80;99.90;;;;;;5004481;28;20609;-68
2020/12/08 05:15:01;;;;;;;17.77;10.23;;;2.80;99.90;;;;;;5007472;28;20045;-66
2020/12/08 05:17:28;;;;;;;15.32;11.23;;;2.80;99.90;;;;;;5009212;28;20140;-67
2020/12/08 05:20:10;;;;;;;18.95;9.55;;;2.80;99.90;;;;;;5005935;28;20050;-66
2020/12/08 05:22:37;;;;;;;12.75;9.05;;;2.80;99.90;;;;;;5012693;28;20056;-67
2020/12/08 05:25:17;;;;;;;19.38;10.45;;;2.80;99.90;;;;;;5006026;28;20168;-67
2020/12/08 05:27:45;;;;;;;17.88;12.02;;;2.80;99.90;;;;;;5001552;28;20389;-67
2020/12/08 05:30:12;;;;;;;16.40;10.07;;;2.80;99.90;;;;;;5007463;28;20107;-71
2020/12/08 05:32:40;;;;;;;16.40;10.13;;;2.70;99.90;;;;;;4998430;28;20037;-70
2020/12/08 05:35:12;;;;;;;16.67;10.77;;;2.70;99.90;;;;;;5005634;28;20099;-68
2020/12/08 05:37:44;;;;;;;18.42;11.90;;;2.70;99.90;;;;;;5001374;28;20785;-72
2020/12/08 05:40:17;;;;;;;19.23;11.60;;;2.70;99.90;;;;;;5005495;28;20049;-69
2020/12/08 05:43:03;;;;;;;15.00;10.55;;;2.70;99.90;;;;;;5000588;28;20053;-69
2020/12/08 05:45:29;;;;;;;14.07;10.02;;;2.70;99.90;;;;;;5003315;28;20065;-67
2020/12/08 05:47:57;;;;;;;14.98;10.43;;;2.70;99.90;;;;;;5006631;28;20059;-68
2020/12/08 05:50:26;;;;;;;13.75;10.07;;;2.60;99.90;;;;;;5002703;28;20099;-72
2020/12/08 05:52:58;;;;;;;16.88;10.32;;;2.60;99.90;;;;;;5003363;28;20058;-72
2020/12/08 05:55:31;;;;;;;19.83;11.75;;;2.60;99.90;;;;;;5002064;28;20160;-69
2020/12/08 05:58:10;;;;;;;19.25;11.77;;;2.60;99.90;;;;;;5002789;28;20045;-69
2020/12/08 06:00:37;;;;;;;26.15;11.50;;;2.60;99.90;;;;;;5005111;28;20037;-70
2020/12/08 06:03:12;;;;;;;22.95;12.45;;;2.60;99.90;;;;;;5009415;28;20045;-67
2020/12/08 06:05:41;;;;;;;17.42;11.65;;;2.60;99.90;;;;;;5009085;28;20030;-69
2020/12/08 06:08:17;;;;;;;16.48;11.18;;;2.60;99.90;;;;;;5003494;28;20128;-72
2020/12/08 06:10:48;;;;;;;13.95;10.65;;;2.60;99.90;;;;;;5004078;28;20131;-73
2020/12/08 06:13:28;;;;;;;26.27;11.40;;;2.60;99.90;;;;;;5006874;28;20034;-67
2020/12/08 06:15:58;;;;;;;17.08;12.80;;;2.60;99.90;;;;;;5000209;28;20146;-70
2020/12/08 06:18:39;;;;;;;21.08;12.93;;;2.50;99.90;;;;;;5007280;28;20072;-69
2020/12/08 06:21:41;;;;;;;;;;;2.50;99.90;;;;;;5004932;28;20041;-71
2020/12/08 06:24:07;;;;;;;20.70;11.82;;;2.50;99.90;;;;;;5024187;28;19928;-67
2020/12/08 06:26:34;;;;;;;20.17;13.43;;;2.50;99.90;;;;;;5012561;28;20754;-70
2020/12/08 06:29:08;;;;;;;17.80;13.63;;;2.40;99.90;;;;;;5005553;28;20361;-68
2020/12/08 06:31:49;;;;;;;21.88;11.35;;;2.40;99.90;;;;;;5009939;28;20696;-72
2020/12/08 06:34:28;;;;;;;14.05;9.98;;;2.40;99.90;;;;;;5007360;28;20152;-67
2020/12/08 06:37:06;;;;;;;17.20;10.52;;;2.40;99.90;;;;;;5006746;28;20041;-69
2020/12/08 06:39:32;;;;;;;18.63;12.32;;;2.40;99.90;;;;;;5008503;28;20119;-71
2020/12/08 06:41:59;;;;;;;17.60;13.32;;;2.30;99.90;;;;;;5005645;28;20042;-69
2020/12/08 06:44:27;;;;;;;21.70;12.35;;;2.30;99.90;;;;;;5011152;28;20053;-68
2020/12/08 06:46:58;;;;;;;17.35;10.57;;;2.30;99.90;;;;;;5008256;28;20135;-70
2020/12/08 06:49:33;;;;;;;18.60;9.65;;;2.30;99.90;;;;;;5008183;28;20054;-72
2020/12/08 06:52:00;;;;;;;17.45;10.98;;;2.30;99.90;;;;;;5004107;28;20076;-68
2020/12/08 06:54:27;;;;;;;19.58;11.38;;;2.20;99.90;;;;;;5004976;28;20054;-68
2020/12/08 06:57:00;;;;;;;16.77;11.70;;;2.20;99.90;;;;;;5009475;28;20064;-66
2020/12/08 06:59:28;;;;;;;17.15;10.57;;;2.20;99.90;;;;;;5000778;28;20053;-70
2020/12/08 07:01:56;;;;;;;21.30;12.50;;;2.20;99.90;;;;;;5009051;28;20584;-67
2020/12/08 07:04:26;;;;;;;19.85;11.07;;;2.20;99.90;;;;;;5007333;28;20406;-66
2020/12/08 07:06:53;;;;;;;21.58;11.93;;;2.10;99.90;;;;;;5005154;28;20089;-70
2020/12/08 07:09:20;;;;;;;22.80;13.10;;;2.10;99.90;;;;;;5007692;28;20041;-68
2020/12/08 07:11:47;;;;;;;17.77;12.02;;;2.10;99.90;;;;;;5002580;28;20151;-68
2020/12/08 07:14:13;;;;;;;17.30;11.20;;;2.10;99.90;;;;;;5008360;28;20452;-67
2020/12/08 07:16:41;;;;;;;14.27;10.55;;;2.20;99.90;;;;;;5006011;28;20144;-68
2020/12/08 07:19:07;;;;;;;16.92;10.30;;;2.10;99.90;;;;;;5005220;28;20049;-71
2020/12/08 07:21:34;;;;;;;16.05;10.65;;;2.10;99.90;;;;;;5004291;28;20069;-71
2020/12/08 07:24:10;;;;;;;19.27;10.98;;;2.10;99.90;;;;;;5003376;28;20054;-69
2020/12/08 07:26:38;;;;;;;27.67;11.70;;;2.10;99.90;;;;;;5002425;28;20109;-69
2020/12/08 07:29:06;;;;;;;18.38;11.20;;;2.10;99.90;;;;;;5004798;28;20137;-67
2020/12/08 07:31:32;;;;;;;14.07;10.50;;;2.10;99.90;;;;;;5005652;28;20134;-67
2020/12/08 07:33:59;;;;;;;16.20;11.20;;;2.10;99.90;;;;;;5006833;28;20180;-67
2020/12/08 07:36:30;;;;;;;12.80;9.85;;;2.20;99.90;;;;;;4989597;28;20156;-71
2020/12/08 07:38:59;;;;;;;14.95;10.10;;;2.10;99.90;;;;;;5001528;28;20085;-69
2020/12/08 07:41:30;;;;;;;18.92;11.35;;;2.10;99.90;;;;;;5004729;28;20536;-70
2020/12/08 07:43:58;;;;;;;17.55;10.88;;;2.10;99.90;;;;;;5010672;28;20388;-69
2020/12/08 07:46:31;;;;;;;18.48;11.23;;;2.10;99.90;;;;;;5005895;28;20056;-69
2020/12/08 07:49:01;;;;;;;16.70;11.70;;;2.10;99.90;;;;;;5006777;28;20083;-69
2020/12/08 07:51:29;;;;;;;22.80;12.23;;;2.20;99.90;;;;;;5004587;28;20466;-67
2020/12/08 07:53:56;;;;;;;17.20;11.18;;;2.10;99.90;;;;;;5002300;28;20045;-69
2020/12/08 07:56:28;;;;;;;17.00;10.38;;;2.10;99.90;;;;;;5005198;28;20053;-66
2020/12/08 07:58:54;;;;;;;17.00;11.38;;;2.10;99.90;;;;;;5000898;28;20589;-72
2020/12/08 08:01:21;;;;;;;16.15;11.25;;;2.10;99.90;;;;;;5006218;28;20635;-68
2020/12/08 08:03:48;;;;;;;18.75;11.98;;;2.10;99.90;;;;;;5004675;28;20165;-69
2020/12/08 08:06:19;;;;;;;20.05;11.45;;;2.10;99.90;;;;;;5008604;28;20049;-66
2020/12/08 08:08:47;;;;;;;15.02;10.68;;;2.10;99.90;;;;;;5022955;28;20050;-67
2020/12/08 08:11:15;;;;;;;16.38;11.85;;;2.10;99.90;;;;;;5025324;28;20146;-68
2020/12/08 08:13:42;;;;;;;14.57;11.00;;;2.20;99.90;;;;;;5025823;28;20067;-66
2020/12/08 08:16:11;;;;;;;17.75;12.05;;;2.20;99.90;;;;;;5024746;28;20400;-68
2020/12/08 08:18:38;;;;;;;19.42;11.85;;;2.20;99.90;;;;;;5021851;28;20090;-68
2020/12/08 08:21:05;;;;;;;16.38;11.55;;;2.20;99.90;;;;;;5023908;28;20037;-71
2020/12/08 08:23:33;;;;;;;17.02;11.68;;;2.10;99.90;;;;;;5023879;28;20455;-70
2020/12/08 08:26:03;;;;;;;18.10;12.38;;;2.10;99.90;;;;;;5021723;28;20053;-69
2020/12/08 08:28:29;;;;;;;18.23;12.35;;;2.10;99.90;;;;;;5022994;28;20140;-68
2020/12/08 08:30:55;;;;;;;17.75;11.05;;;2.20;99.90;;;;;;5021866;28;20095;-70
2020/12/08 08:33:23;;;;;;;17.63;12.07;;;2.20;99.90;;;;;;5023721;28;20144;-69
2020/12/08 08:35:49;;;;;;;18.83;12.73;;;2.20;99.90;;;;;;5033077;28;20044;-69
2020/12/08 08:38:16;;;;;;;19.02;12.23;;;2.10;99.90;;;;;;5031407;28;20057;-68
2020/12/08 08:40:42;;;;;;;23.13;12.55;;;2.10;99.90;;;;;;5028128;28;20444;-73
2020/12/08 08:43:09;;;;;;;20.23;12.38;;;2.10;99.90;;;;;;5028120;28;20436;-68
2020/12/08 08:45:35;;;;;;;19.55;12.68;;;2.10;99.90;;;;;;5022420;28;20131;-69
2020/12/08 08:48:02;;;;;;;17.80;12.10;;;2.10;99.90;;;;;;5035590;28;20594;-71
2020/12/08 08:50:29;;;;;;;22.00;12.43;;;2.10;99.90;;;;;;5026056;28;20057;-73
2020/12/08 08:52:55;;;;;;;16.40;12.45;;;2.10;99.90;;;;;;5025605;28;20469;-65
2020/12/08 08:55:22;;;;;;;17.90;12.55;;;2.10;99.90;;;;;;5031153;28;20037;-68
2020/12/08 08:57:48;;;;;;;19.42;14.07;;;2.10;99.90;;;;;;5025444;28;20057;-68
2020/12/08 09:00:15;;;;;;;18.52;12.15;;;2.10;99.90;;;;;;5030419;28;20045;-65
2020/12/08 09:02:41;;;;;;;19.73;13.27;;;2.00;99.90;;;;;;5023363;28;20049;-71
2020/12/08 09:05:08;;;;;;;24.48;12.35;;;2.00;99.90;;;;;;5032076;28;20483;-67
2020/12/08 09:07:34;;;;;;;19.27;13.23;;;2.00;99.90;;;;;;5030174;28;20081;-68
2020/12/08 09:10:01;;;;;;;21.88;14.82;;;2.00;99.90;;;;;;5021336;28;20056;-70
2020/12/08 09:12:27;;;;;;;17.35;12.32;;;2.00;99.90;;;;;;5028511;28;20387;-69
2020/12/08 09:14:57;;;;;;;19.80;13.40;;;2.00;99.90;;;;;;5025400;28;20048;-71
2020/12/08 09:17:24;;;;;;;21.20;12.18;;;2.00;99.90;;;;;;5033522;28;20078;-66
2020/12/08 09:19:54;;;;;;;20.05;13.50;;;2.00;99.90;;;;;;5021851;28;20073;-68
2020/12/08 09:22:23;;;;;;;22.85;13.07;;;2.00;99.90;;;;;;5032025;28;20048;-69
2020/12/08 09:24:50;;;;;;;17.35;11.27;;;2.00;99.90;;;;;;5030836;28;20555;-68
2020/12/08 09:27:17;;;;;;;15.32;11.48;;;2.00;99.90;;;;;;5024921;28;20045;-66
2020/12/08 09:29:43;;;;;;;26.23;12.13;;;2.00;99.90;;;;;;5031754;28;20048;-67
2020/12/08 09:32:10;;;;;;;19.35;12.52;;;2.00;99.90;;;;;;5024025;28;20041;-67
2020/12/08 09:34:37;;;;;;;16.27;10.88;;;2.00;99.90;;;;;;5030077;28;20782;-71
2020/12/08 09:37:04;;;;;;;18.98;11.35;;;2.00;99.90;;;;;;5021033;28;20053;-71
2020/12/08 09:39:31;;;;;;;17.83;11.80;;;2.00;99.90;;;;;;5028215;28;20057;-66
2020/12/08 09:41:58;;;;;;;20.23;12.38;;;1.90;99.90;;;;;;5025095;28;20140;-69
2020/12/08 09:44:25;;;;;;;18.00;11.63;;;1.90;99.90;;;;;;5024722;28;20049;-68
2020/12/08 09:46:52;;;;;;;23.88;11.05;;;1.90;99.90;;;;;;5027550;28;20127;-68
2020/12/08 09:49:19;;;;;;;18.27;11.25;;;1.90;99.90;;;;;;5023847;28;21695;-70
2020/12/08 09:51:46;;;;;;;20.50;13.82;;;1.90;99.90;;;;;;5025477;28;20037;-69
2020/12/08 09:54:12;;;;;;;16.67;11.70;;;1.90;99.90;;;;;;5022360;28;20042;-68
2020/12/08 09:56:39;;;;;;;20.88;12.32;;;1.90;99.90;;;;;;5027051;28;20042;-71
2020/12/08 09:59:06;;;;;;;19.27;12.07;;;1.90;99.90;;;;;;5028517;28;20094;-66
2020/12/08 10:01:34;;;;;;;18.05;12.75;;;1.90;99.90;;;;;;5023858;28;20053;-66
2020/12/08 10:04:01;;;;;;;18.98;12.52;;;1.90;99.90;;;;;;5024183;28;20048;-66
2020/12/08 10:06:28;;;;;;;18.42;12.43;;;1.90;99.90;;;;;;5021044;28;20151;-69
2020/12/08 10:08:55;;;;;;;19.95;12.63;;;1.90;99.90;;;;;;5024008;28;20280;-67
2020/12/08 10:11:23;;;;;;;24.73;13.05;;;1.90;99.90;;;;;;5027366;28;20042;-70
2020/12/08 10:13:51;;;;;;;18.85;13.57;;;1.90;99.90;;;;;;5023624;28;20083;-65
2020/12/08 10:16:25;;;;;;;26.25;14.38;;;2.00;99.90;;;;;;5029492;28;20160;-65
2020/12/08 10:18:52;;;;;;;18.52;13.20;;;2.00;99.90;;;;;;5028420;28;20564;-67
2020/12/08 10:21:20;;;;;;;19.95;12.98;;;2.00;99.90;;;;;;5025318;28;20058;-67
2020/12/08 10:23:47;;;;;;;18.65;13.55;;;1.90;99.90;;;;;;5020832;28;20088;-67
2020/12/08 10:26:14;;;;;;;16.50;13.02;;;1.90;99.90;;;;;;5022643;28;20045;-68
2020/12/08 10:28:40;;;;;;;22.33;13.07;;;2.00;99.90;;;;;;5028402;28;20454;-70
2020/12/08 10:31:07;;;;;;;18.27;13.95;;;1.90;99.90;;;;;;5025646;28;20065;-69
2020/12/08 10:33:33;;;;;;;26.83;16.08;;;1.90;99.90;;;;;;5026070;28;20041;-67
2020/12/08 10:36:00;;;;;;;19.02;14.30;;;1.90;99.90;;;;;;5023276;28;20148;-70
2020/12/08 10:38:28;;;;;;;18.75;13.80;;;2.00;99.90;;;;;;5026140;28;20628;-68
2020/12/08 10:40:55;;;;;;;16.90;14.15;;;1.90;99.90;;;;;;5029741;28;20042;-66
2020/12/08 10:43:22;;;;;;;19.38;13.25;;;2.00;99.90;;;;;;5028667;28;20175;-65
2020/12/08 10:46:03;;;;;;;22.65;13.55;;;1.90;99.90;;;;;;5028260;28;20041;-69
2020/12/08 10:48:30;;;;;;;22.58;13.25;;;2.00;99.90;;;;;;5024045;28;20400;-67
2020/12/08 10:50:57;;;;;;;21.20;13.60;;;1.90;99.90;;;;;;5026456;28;20053;-67
2020/12/08 10:53:23;;;;;;;23.00;15.15;;;1.90;99.90;;;;;;5020393;28;20049;-68
2020/12/08 10:55:50;;;;;;;22.70;13.82;;;2.00;99.90;;;;;;5030318;28;20136;-70
2020/12/08 10:58:18;;;;;;;18.58;13.23;;;2.00;99.90;;;;;;5029021;28;20049;-67
2020/12/08 11:00:44;;;;;;;21.88;15.35;;;2.00;99.90;;;;;;5027978;28;20086;-66
2020/12/08 11:03:11;;;;;;;30.58;14.70;;;2.00;99.90;;;;;;5023920;28;20600;-70
2020/12/08 11:05:39;;;;;;;20.90;13.32;;;2.00;99.90;;;;;;5022492;28;20041;-70
2020/12/08 11:08:06;;;;;;;22.05;15.32;;;2.00;99.90;;;;;;5024086;28;20716;-68
2020/12/08 11:10:33;;;;;;;21.42;15.95;;;2.00;99.90;;;;;;5030054;28;20061;-69
2020/12/08 11:12:59;;;;;;;24.25;14.15;;;2.00;99.90;;;;;;5025726;28;20053;-67
2020/12/08 11:15:26;;;;;;;25.13;15.05;;;2.00;99.90;;;;;;5029212;28;20048;-67
2020/12/08 11:17:53;;;;;;;24.23;14.43;;;2.00;99.90;;;;;;5027341;28;20047;-69
2020/12/08 11:20:20;;;;;;;23.70;15.98;;;2.00;99.90;;;;;;5028082;28;20063;-68
2020/12/08 11:22:47;;;;;;;29.17;16.13;;;2.00;99.90;;;;;;5024088;28;20037;-68
2020/12/08 11:25:13;;;;;;;23.00;14.38;;;2.00;99.90;;;;;;5022178;28;20144;-70
2020/12/08 11:27:40;;;;;;;27.40;18.05;;;2.00;99.90;;;;;;5028886;28;20091;-67
2020/12/08 11:30:07;;;;;;;20.52;15.25;;;2.00;99.90;;;;;;5025918;28;20152;-69
2020/12/08 11:32:33;;;;;;;25.38;15.63;;;2.00;99.90;;;;;;5028573;28;20468;-67
2020/12/08 11:35:00;;;;;;;24.90;14.88;;;2.00;99.90;;;;;;5021803;28;20132;-66
2020/12/08 11:37:30;;;;;;;24.33;15.07;;;2.00;99.90;;;;;;5029982;28;20049;-67
2020/12/08 11:40:15;;;;;;;21.98;14.25;;;2.00;99.90;;;;;;5020576;28;20057;-66
2020/12/08 11:42:42;;;;;;;22.25;14.90;;;2.00;99.90;;;;;;5022312;28;20037;-67
2020/12/08 11:45:12;;;;;;;21.60;14.80;;;2.00;99.90;;;;;;5030065;28;20049;-67
2020/12/08 11:47:40;;;;;;;24.02;16.00;;;2.00;99.90;;;;;;5022736;28;20844;-66
2020/12/08 11:50:08;;;;;;;23.75;16.45;;;2.00;99.90;;;;;;5026366;28;20125;-67
2020/12/08 11:52:35;;;;;;;21.77;15.10;;;2.00;99.90;;;;;;5022388;28;20455;-68
2020/12/08 11:55:06;;;;;;;20.40;15.73;;;2.00;99.90;;;;;;5026444;28;20045;-67
2020/12/08 11:57:36;;;;;;;23.30;15.32;;;2.00;99.90;;;;;;5025343;28;20541;-66
2020/12/08 12:00:07;;;;;;;22.65;16.20;;;2.00;99.90;;;;;;5023165;28;20048;-70
2020/12/08 12:02:38;;;;;;;25.50;15.07;;;2.00;99.90;;;;;;5025207;28;20045;-66
2020/12/08 12:05:05;;;;;;;25.15;16.63;;;2.00;99.90;;;;;;5023204;28;20053;-68
2020/12/08 12:07:32;;;;;;;24.42;16.75;;;2.00;99.90;;;;;;5022137;28;20113;-68
2020/12/08 12:09:59;;;;;;;20.83;14.85;;;2.00;99.90;;;;;;5032072;28;20051;-67
2020/12/08 12:12:26;;;;;;;29.45;17.33;;;2.00;99.90;;;;;;5028588;28;20044;-68
2020/12/08 12:14:52;;;;;;;21.88;15.63;;;2.00;99.90;;;;;;5037261;28;20601;-68
2020/12/08 12:17:19;;;;;;;24.38;17.08;;;2.00;99.90;;;;;;5025052;28;20151;-68
2020/12/08 12:19:45;;;;;;;23.80;15.77;;;2.00;99.90;;;;;;5026400;28;20480;-64
2020/12/08 12:22:13;;;;;;;27.75;17.80;;;2.00;99.90;;;;;;5027379;28;20052;-69
2020/12/08 12:24:39;;;;;;;24.85;16.30;;;2.00;99.90;;;;;;5029302;28;20056;-67
2020/12/08 12:27:07;;;;;;;22.77;15.13;;;2.00;99.90;;;;;;5030927;28;20052;-67
2020/12/08 12:29:33;;;;;;;24.42;16.75;;;2.00;99.90;;;;;;5027934;28;20041;-66
2020/12/08 12:32:00;;;;;;;24.90;16.08;;;2.00;99.90;;;;;;5030137;28;20037;-67
2020/12/08 12:34:26;;;;;;;25.35;16.33;;;2.00;99.90;;;;;;5026818;28;20036;-68
2020/12/08 12:36:53;;;;;;;28.92;18.38;;;2.00;99.90;;;;;;5025612;28;20070;-70
2020/12/08 12:39:19;;;;;;;24.45;16.80;;;2.00;99.90;;;;;;5029301;28;20053;-67
2020/12/08 12:41:46;;;;;;;22.45;16.00;;;2.00;99.90;;;;;;5028293;28;20064;-67
2020/12/08 12:44:13;;;;;;;23.02;14.55;;;2.00;99.90;;;;;;5026214;28;20375;-68